Time;durP1;ratioP1;P1;durP2;ratioP2;P2;SDS_P1;SDS_P2;PMS_P1;PMS_P2;Temp;Humidity;BMP_temperature;BMP_pressure;BME280_temperature;BME280_humidity;BME280_pressure;Samples;Min_cycle;Max_cycle;Signal;HPM_P1;HPM_P2
2021/11/30 00:00:49;;;;;;;22.95;13.77;;;;;;;7.23;60.08;92182.31;4982324;28;20071;-77
2021/11/30 00:03:15;;;;;;;12.68;8.98;;;;;;;7.13;60.20;92166.91;4986576;28;20021;-76
2021/11/30 00:05:41;;;;;;;7.13;4.68;;;;;;;7.35;59.79;92184.16;4983861;28;20521;-76
2021/11/30 00:08:06;;;;;;;5.43;3.38;;;;;;;7.49;59.42;92185.38;4988830;28;20049;-76
2021/11/30 00:10:44;;;;;;;4.85;3.58;;;;;;;7.25;59.53;92169.53;4981305;28;20121;-76
2021/11/30 00:13:18;;;;;;;8.60;4.35;;;;;;;7.09;60.21;92136.94;4985640;28;20053;-77
2021/11/30 00:15:46;;;;;;;5.70;4.10;;;;;;;7.57;59.62;92192.44;4983416;28;20097;-76
2021/11/30 00:18:12;;;;;;;6.13;2.55;;;;;;;7.56;59.41;92182.19;4984043;28;20260;-75
2021/11/30 00:20:39;;;;;;;3.67;2.05;;;;;;;7.62;59.22;92178.97;4983436;28;20031;-76
2021/11/30 00:23:05;;;;;;;3.00;2.20;;;;;;;7.79;58.69;92187.78;4983561;28;20452;-76
2021/11/30 00:25:31;;;;;;;2.97;2.10;;;;;;;7.60;58.90;92175.88;4984084;28;20142;-76
2021/11/30 00:27:57;;;;;;;2.60;2.15;;;;;;;7.69;58.85;92171.25;4981358;28;20436;-77
2021/11/30 00:30:23;;;;;;;2.75;2.35;;;;;;;7.85;58.52;92187.22;4984029;28;20038;-77
2021/11/30 00:32:50;;;;;;;2.97;2.22;;;;;;;7.87;58.71;92192.97;4982216;28;20338;-76
2021/11/30 00:35:15;;;;;;;27.05;12.45;;;;;;;7.28;59.80;92197.97;4985080;28;20504;-77
2021/11/30 00:37:41;;;;;;;29.00;14.68;;;;;;;7.65;59.36;92193.41;4984722;28;20160;-76
2021/11/30 00:40:07;;;;;;;27.17;14.50;;;;;;;7.71;58.74;92182.28;4982359;28;20048;-77
2021/11/30 00:42:33;;;;;;;32.70;17.05;;;;;;;7.52;58.79;92168.84;4981911;28;20042;-76
2021/11/30 00:45:01;;;;;;;35.25;17.95;;;;;;;7.80;57.99;92173.44;4982131;28;20823;-76
2021/11/30 00:47:31;;;;;;;52.47;25.48;;;;;;;7.69;57.57;92178.41;4985754;28;20026;-77
2021/11/30 00:49:59;;;;;;;38.33;19.23;;;;;;;7.35;58.54;92169.09;4986909;28;20925;-77
2021/11/30 00:52:25;;;;;;;31.88;17.60;;;;;;;7.86;57.66;92182.72;4985859;28;20133;-76
2021/11/30 00:54:51;;;;;;;34.00;16.27;;;;;;;7.95;56.81;92176.16;4984681;28;20531;-76
2021/11/30 00:57:18;;;;;;;31.65;18.00;;;;;;;7.64;58.27;92197.94;4985601;28;20030;-77
2021/11/30 00:59:43;;;;;;;30.38;17.27;;;;;;;7.71;58.24;92197.38;4997188;28;20441;-74
2021/11/30 01:02:09;;;;;;;36.03;18.05;;;;;;;7.77;57.18;92180.19;5012580;28;20868;-74
2021/11/30 01:04:34;;;;;;;31.52;15.52;;;;;;;7.76;57.62;92180.53;5018720;28;20037;-75
2021/11/30 01:07:00;;;;;;;33.53;16.58;;;;;;;7.58;58.12;92178.09;5019944;28;20050;-75
2021/11/30 01:09:26;;;;;;;32.63;17.70;;;;;;;7.58;58.50;92196.59;5018729;28;20040;-76
2021/11/30 01:11:52;;;;;;;36.17;17.10;;;;;;;7.26;59.50;92192.22;5014237;28;20049;-75
2021/11/30 01:14:19;;;;;;;36.03;15.80;;;;;;;7.43;59.22;92180.66;5016593;28;20032;-75
2021/11/30 01:16:45;;;;;;;31.65;18.25;;;;;;;7.57;58.65;92181.84;5015983;28;22280;-75
2021/11/30 01:19:10;;;;;;;37.05;18.58;;;;;;;7.46;58.72;92158.81;5018263;28;20409;-75
2021/11/30 01:21:36;;;;;;;30.35;15.93;;;;;;;7.64;58.38;92168.03;5018486;28;20096;-77
2021/11/30 01:24:03;;;;;;;31.60;17.58;;;;;;;7.64;57.91;92163.53;5014583;28;20028;-76
2021/11/30 01:26:28;;;;;;;30.17;16.70;;;;;;;7.53;58.75;92180.22;5016908;28;20037;-75
2021/11/30 01:28:54;;;;;;;35.55;20.40;;;;;;;7.15;59.51;92162.03;5017774;28;20030;-74
2021/11/30 01:31:19;;;;;;;31.17;18.17;;;;;;;7.34;59.31;92159.59;5015239;28;20041;-77
2021/11/30 01:33:44;;;;;;;32.13;16.98;;;;;;;7.37;58.99;92176.69;5015369;28;20042;-76
2021/11/30 01:36:10;;;;;;;24.48;14.57;;;;;;;6.88;59.88;92181.19;5012605;28;20109;-75
2021/11/30 01:38:36;;;;;;;28.13;14.70;;;;;;;6.75;59.87;92188.34;5018702;28;20045;-76
2021/11/30 01:41:04;;;;;;;25.63;13.30;;;;;;;6.72;60.05;92195.03;5018196;28;20045;-77
2021/11/30 01:43:43;;;;;;;17.55;11.07;;;;;;;6.43;59.87;92205.75;5033216;28;20077;-75
2021/11/30 01:51:32;;;;;;;3.42;2.20;;;;;;;4.65;58.48;92179.13;5013406;28;20050;-76
2021/11/30 01:53:58;;;;;;;2.40;2.10;;;;;;;4.26;59.28;92188.78;4990221;28;20022;-77
2021/11/30 01:56:25;;;;;;;2.22;1.83;;;;;;;4.26;59.93;92215.09;4986331;28;20566;-75
2021/11/30 01:58:51;;;;;;;1.60;1.50;;;;;;;3.85;60.45;92199.06;4982050;28;20039;-76
2021/11/30 02:01:18;;;;;;;1.27;1.15;;;;;;;3.64;61.21;92219.94;4985886;28;21079;-76
2021/11/30 02:03:45;;;;;;;0.90;0.90;;;;;;;3.12;63.19;92229.56;4984434;28;20038;-74
2021/11/30 02:06:10;;;;;;;1.95;1.10;;;;;;;3.07;63.90;92236.81;4986958;28;20042;-76
2021/11/30 02:08:36;;;;;;;1.20;1.10;;;;;;;2.79;65.02;92237.00;4988641;28;20081;-76
2021/11/30 02:11:01;;;;;;;0.80;0.80;;;;;;;2.49;65.98;92235.19;4983008;28;20041;-76
2021/11/30 02:13:27;;;;;;;1.00;0.90;;;;;;;2.37;66.60;92230.47;4987098;28;20519;-76
2021/11/30 02:15:55;;;;;;;0.82;0.82;;;;;;;2.39;67.07;92243.31;4986964;28;20076;-76
2021/11/30 02:18:23;;;;;;;0.80;0.80;;;;;;;2.05;68.54;92256.97;4986623;28;20069;-76
2021/11/30 02:20:55;;;;;;;0.80;0.80;;;;;;;1.73;69.07;92228.28;4989863;28;20397;-76
2021/11/30 02:23:51;;;;;;;0.80;0.80;;;;;;;1.77;69.68;92263.31;4982974;28;20037;-75
2021/11/30 02:26:17;;;;;;;0.77;0.77;;;;;;;1.51;70.70;92250.78;4989569;28;20119;-76
2021/11/30 02:28:46;;;;;;;0.90;0.90;;;;;;;1.24;72.07;92275.16;4982209;28;20372;-76
2021/11/30 02:31:15;;;;;;;0.98;0.98;;;;;;;1.04;73.33;92277.38;4983878;28;20120;-76
2021/11/30 02:33:41;;;;;;;0.98;0.98;;;;;;;0.93;73.42;92265.56;4985779;28;20614;-76
2021/11/30 02:36:29;;;;;;;0.80;0.80;;;;;;;1.02;73.74;92274.31;4984788;28;20178;-76
2021/11/30 02:38:57;;;;;;;0.80;0.80;;;;;;;1.00;73.89;92289.50;4985842;28;20064;-76
2021/11/30 02:41:23;;;;;;;0.85;0.85;;;;;;;1.09;73.82;92280.69;4982466;28;20125;-76
2021/11/30 02:43:50;;;;;;;0.80;0.80;;;;;;;0.99;73.22;92262.56;4983894;28;20037;-76
2021/11/30 02:46:39;;;;;;;0.80;0.80;;;;;;;1.00;73.38;92276.41;4988244;28;20061;-76
2021/11/30 02:49:07;;;;;;;0.80;0.80;;;;;;;1.04;73.84;92299.09;4981913;28;20046;-76
2021/11/30 02:51:34;;;;;;;0.80;0.80;;;;;;;0.99;73.72;92311.50;4984692;28;20120;-76
2021/11/30 02:54:07;;;;;;;0.90;0.90;;;;;;;0.68;75.11;92306.84;4999001;28;20019;-76
2021/11/30 02:56:39;;;;;;;0.90;0.90;;;;;;;0.74;75.11;92297.81;4981142;28;20035;-76
2021/11/30 02:59:04;;;;;;;0.80;0.80;;;;;;;0.73;74.68;92301.53;4996722;28;20058;-76
2021/11/30 03:01:29;;;;;;;0.80;0.80;;;;;;;0.57;75.32;92297.59;4987083;28;20128;-76
2021/11/30 03:03:55;;;;;;;0.80;0.80;;;;;;;0.56;75.16;92309.13;4984902;28;20374;-76
2021/11/30 03:06:20;;;;;;;0.85;0.85;;;;;;;0.59;75.90;92315.63;4984745;28;20112;-75
2021/11/30 03:08:46;;;;;;;0.85;0.85;;;;;;;0.83;76.17;92328.56;4989017;28;20324;-76
2021/11/30 03:11:11;;;;;;;0.80;0.80;;;;;;;0.81;75.31;92326.22;4993766;28;20201;-76
2021/11/30 03:13:36;;;;;;;0.82;0.82;;;;;;;0.87;74.70;92332.16;4981546;28;20397;-76
2021/11/30 03:16:03;;;;;;;0.80;0.80;;;;;;;0.58;75.21;92316.69;4981505;28;20066;-76
2021/11/30 03:18:29;;;;;;;0.70;0.70;;;;;;;0.65;75.32;92327.56;4985623;28;20519;-75
2021/11/30 03:20:55;;;;;;;2.72;0.90;;;;;;;0.72;74.98;92341.81;4985169;28;20536;-76
2021/11/30 03:23:20;;;;;;;0.80;0.80;;;;;;;0.62;75.26;92344.63;4982122;28;20040;-75
2021/11/30 03:25:46;;;;;;;0.90;0.90;;;;;;;0.49;75.64;92344.56;4987047;28;20062;-76
2021/11/30 03:28:12;;;;;;;0.80;0.80;;;;;;;0.48;75.70;92351.66;4981459;28;20121;-76
2021/11/30 03:30:41;;;;;;;0.80;0.80;;;;;;;0.46;76.17;92359.00;4982792;28;20488;-76
2021/11/30 03:35:52;;;;;;;;;;;;;;;0.17;77.04;92361.00;4986750;28;20504;-76
2021/11/30 03:38:17;;;;;;;1.00;1.00;;;;;;;0.12;77.16;92359.22;4986120;28;19922;-76
2021/11/30 03:40:43;;;;;;;0.90;0.90;;;;;;;0.03;77.18;92349.69;4985403;28;20461;-76
2021/11/30 03:43:08;;;;;;;0.80;0.80;;;;;;;-0.08;77.49;92362.91;4977880;28;20026;-73
2021/11/30 03:45:34;;;;;;;0.80;0.80;;;;;;;-0.18;78.25;92373.50;5007991;28;20045;-74
2021/11/30 03:47:59;;;;;;;1.10;1.00;;;;;;;-0.45;78.34;92328.16;5008417;28;20033;-75
2021/11/30 03:50:25;;;;;;;0.90;0.90;;;;;;;-0.21;78.42;92365.44;5017433;28;20108;-75
2021/11/30 03:52:51;;;;;;;1.20;1.10;;;;;;;-0.10;78.46;92391.19;5022974;28;20038;-75
2021/11/30 03:55:16;;;;;;;0.90;0.90;;;;;;;-0.13;78.16;92360.38;5009896;28;20094;-75
2021/11/30 03:57:42;;;;;;;1.17;1.10;;;;;;;-0.04;77.81;92367.59;5009967;28;20052;-76
2021/11/30 04:00:10;;;;;;;0.90;0.90;;;;;;;-0.21;77.61;92373.28;4987926;28;20042;-76
2021/11/30 04:02:37;;;;;;;1.08;1.08;;;;;;;-0.04;78.09;92396.34;4984140;28;20025;-76
2021/11/30 04:05:05;;;;;;;0.90;0.90;;;;;;;-0.06;77.80;92396.59;4991333;28;20052;-75
2021/11/30 04:07:30;;;;;;;2.65;1.50;;;;;;;-0.09;77.67;92392.72;5009032;28;20113;-75
2021/11/30 04:09:56;;;;;;;1.48;1.20;;;;;;;-0.38;77.50;92365.91;5012377;28;20437;-75
2021/11/30 04:12:21;;;;;;;1.00;1.00;;;;;;;-0.43;77.45;92381.63;5007299;28;20041;-74
2021/11/30 04:14:47;;;;;;;1.30;1.20;;;;;;;-0.35;77.99;92415.00;5009549;28;20033;-75
2021/11/30 04:17:12;;;;;;;1.05;1.02;;;;;;;-0.31;78.57;92420.44;5007505;28;20029;-77
2021/11/30 04:19:37;;;;;;;1.20;1.20;;;;;;;-0.29;78.40;92413.88;5003997;28;20041;-74
2021/11/30 04:22:03;;;;;;;1.10;1.00;;;;;;;-0.22;78.21;92429.97;5005326;28;20053;-74
2021/11/30 04:24:28;;;;;;;1.00;1.00;;;;;;;-0.35;78.04;92415.00;5006192;28;20042;-74
2021/11/30 04:26:54;;;;;;;1.20;1.20;;;;;;;-0.26;77.45;92444.66;5010327;28;20034;-75
2021/11/30 04:29:19;;;;;;;1.00;1.00;;;;;;;-0.19;77.44;92442.47;5010999;28;20045;-75
2021/11/30 04:31:45;;;;;;;1.00;1.00;;;;;;;-0.76;77.38;92393.78;5007648;28;20603;-75
2021/11/30 04:34:10;;;;;;;1.30;1.10;;;;;;;-0.61;77.90;92426.78;5010372;28;20057;-75
2021/11/30 04:36:36;;;;;;;1.33;1.25;;;;;;;-0.77;78.36;92438.41;5007818;28;20563;-75
2021/11/30 04:39:03;;;;;;;1.20;1.20;;;;;;;-0.75;79.03;92452.75;5010879;28;20032;-75
2021/11/30 04:41:29;;;;;;;1.52;1.42;;;;;;;-0.92;79.04;92435.97;5023931;28;20041;-75
2021/11/30 04:43:55;;;;;;;1.35;1.20;;;;;;;-0.70;79.24;92459.75;5011347;28;20504;-74
2021/11/30 04:46:25;;;;;;;0.88;0.88;;;;;;;-0.80;78.82;92455.41;5004696;28;20042;-75
2021/11/30 04:48:56;;;;;;;0.90;0.90;;;;;;;-1.00;80.07;92456.38;5008688;28;20038;-74
2021/11/30 04:51:21;;;;;;;0.90;0.90;;;;;;;-0.98;80.96;92496.03;5004987;28;20041;-75
2021/11/30 04:53:48;;;;;;;1.13;1.02;;;;;;;-1.04;81.25;92480.69;5005834;28;20038;-75
2021/11/30 04:56:15;;;;;;;1.00;1.00;;;;;;;-1.14;81.11;92486.75;5005621;28;20041;-74
2021/11/30 04:58:42;;;;;;;0.90;0.90;;;;;;;-1.04;81.65;92512.78;5024049;28;20168;-75
2021/11/30 05:01:08;;;;;;;2.05;1.08;;;;;;;-1.24;80.68;92497.28;5004855;28;20045;-75
2021/11/30 05:03:34;;;;;;;1.55;1.30;;;;;;;-1.32;80.42;92484.03;5026601;28;20049;-74
2021/11/30 05:05:59;;;;;;;1.33;1.33;;;;;;;-1.48;81.95;92499.00;5005873;28;20051;-74
2021/11/30 05:08:24;;;;;;;1.50;1.40;;;;;;;-1.48;82.42;92527.69;5007057;28;20109;-75
2021/11/30 05:10:50;;;;;;;1.58;1.48;;;;;;;-1.69;83.04;92537.44;5005366;28;20471;-75
2021/11/30 05:13:15;;;;;;;1.98;1.60;;;;;;;-1.75;83.44;92537.75;5010247;28;20106;-74
2021/11/30 05:15:41;;;;;;;3.28;1.83;;;;;;;-1.70;82.96;92535.88;5009721;28;20710;-75
2021/11/30 05:18:06;;;;;;;3.55;2.17;;;;;;;-1.85;81.87;92534.09;5014276;28;20037;-75
2021/11/30 05:20:32;;;;;;;2.33;2.00;;;;;;;-1.94;82.21;92534.94;5016148;28;20025;-75
2021/11/30 05:22:58;;;;;;;3.92;2.00;;;;;;;-1.83;82.45;92567.72;5006612;28;20034;-75
2021/11/30 05:25:33;;;;;;;3.05;2.45;;;;;;;-1.76;81.92;92577.88;5007352;28;20038;-75
2021/11/30 05:28:00;;;;;;;2.72;1.88;;;;;;;-1.92;81.43;92549.25;5010059;28;20065;-74
2021/11/30 05:30:25;;;;;;;2.42;2.22;;;;;;;-1.75;80.80;92574.22;5011342;28;20062;-75
2021/11/30 05:32:53;;;;;;;2.53;1.90;;;;;;;-1.66;80.64;92589.03;5012327;28;20038;-76
2021/11/30 05:35:18;;;;;;;4.70;3.38;;;;;;;-1.71;79.74;92576.03;5006222;28;20035;-74
2021/11/30 05:37:44;;;;;;;3.15;2.17;;;;;;;-1.90;79.50;92562.78;5018548;28;20033;-74
2021/11/30 05:40:10;;;;;;;3.15;2.00;;;;;;;-1.60;79.49;92597.59;5017866;28;20865;-75
2021/11/30 05:42:36;;;;;;;9.52;4.00;;;;;;;-1.59;78.72;92604.38;5012092;28;20038;-74
2021/11/30 05:45:01;;;;;;;9.05;3.63;;;;;;;-1.66;78.27;92583.06;5019123;28;20037;-76
2021/11/30 05:47:27;;;;;;;7.65;4.25;;;;;;;-1.50;77.81;92614.00;5018466;28;20022;-76
2021/11/30 05:49:52;;;;;;;10.35;3.78;;;;;;;-1.65;77.67;92584.59;5016537;28;20097;-74
2021/11/30 05:52:19;;;;;;;3.40;2.33;;;;;;;-1.65;77.16;92584.59;5020846;28;20087;-74
2021/11/30 05:54:44;;;;;;;2.17;1.95;;;;;;;-1.59;76.91;92594.75;5011840;28;20041;-74
2021/11/30 05:57:17;;;;;;;3.25;2.60;;;;;;;-1.56;77.66;92604.66;5018957;28;20125;-74
2021/11/30 05:59:43;;;;;;;5.88;2.05;;;;;;;-1.65;77.47;92600.22;5022425;28;20023;-74
2021/11/30 06:02:10;;;;;;;2.95;2.65;;;;;;;-1.45;77.30;92636.66;5018331;28;20045;-74
2021/11/30 06:04:36;;;;;;;2.67;2.45;;;;;;;-1.36;76.57;92634.28;5016011;28;20049;-74
2021/11/30 06:07:02;;;;;;;3.65;2.80;;;;;;;-1.27;77.61;92656.94;5023545;28;20038;-74
2021/11/30 06:09:33;;;;;;;3.22;2.38;;;;;;;-1.27;76.95;92651.72;5017554;28;20048;-74
2021/11/30 06:11:59;;;;;;;6.10;3.05;;;;;;;-1.33;76.04;92655.41;5017833;28;20358;-74
2021/11/30 06:14:24;;;;;;;3.53;2.75;;;;;;;-1.29;75.53;92677.28;5020877;28;20049;-74
2021/11/30 06:16:50;;;;;;;4.43;2.60;;;;;;;-1.43;75.65;92673.69;5036443;28;20030;-73
2021/11/30 06:19:16;;;;;;;4.15;2.45;;;;;;;-1.53;75.67;92663.28;5016430;28;20030;-75
2021/11/30 06:21:41;;;;;;;2.47;2.28;;;;;;;-1.31;75.31;92689.03;5018913;28;20034;-73
2021/11/30 06:24:06;;;;;;;2.47;1.70;;;;;;;-1.47;76.30;92690.91;5018663;28;20010;-75
2021/11/30 06:26:32;;;;;;;3.97;2.80;;;;;;;-1.69;79.89;92685.22;5018397;28;20041;-74
2021/11/30 06:28:57;;;;;;;4.18;3.15;;;;;;;-1.68;79.54;92678.97;5016300;28;20034;-74
2021/11/30 06:31:23;;;;;;;4.63;2.38;;;;;;;-1.72;78.65;92688.38;5017376;28;20038;-75
2021/11/30 06:33:48;;;;;;;4.15;2.25;;;;;;;-1.72;77.40;92683.16;5017991;28;20521;-75
2021/11/30 06:36:14;;;;;;;4.70;2.72;;;;;;;-2.15;76.96;92622.81;5017183;28;20046;-74
2021/11/30 06:38:39;;;;;;;3.42;2.22;;;;;;;-1.38;76.94;92713.56;5017950;28;20048;-74
2021/11/30 06:41:05;;;;;;;3.38;3.10;;;;;;;-1.65;76.87;92725.34;5018382;28;20065;-74
2021/11/30 06:43:30;;;;;;;3.40;2.22;;;;;;;-1.75;79.80;92735.84;5017901;28;20066;-72
2021/11/30 06:45:56;;;;;;;3.55;2.63;;;;;;;-1.91;79.37;92720.22;5014732;28;20082;-74
2021/11/30 06:48:21;;;;;;;2.03;1.92;;;;;;;-1.88;78.94;92743.13;5018262;28;20065;-74
2021/11/30 06:50:48;;;;;;;2.90;2.58;;;;;;;-2.07;79.82;92749.91;5017562;28;20030;-75
2021/11/30 06:53:13;;;;;;;2.72;2.47;;;;;;;-2.13;79.77;92748.34;5016444;28;20149;-74
2021/11/30 06:55:40;;;;;;;2.38;2.20;;;;;;;-2.03;79.49;92761.38;5014525;28;20045;-74
2021/11/30 06:58:06;;;;;;;6.97;3.25;;;;;;;-2.02;79.40;92757.72;5035576;28;20040;-74
2021/11/30 07:00:31;;;;;;;3.47;2.67;;;;;;;-2.03;79.46;92740.53;5018961;28;20053;-74
2021/11/30 07:02:58;;;;;;;3.50;3.17;;;;;;;-2.08;79.20;92756.16;5019042;28;20017;-75
2021/11/30 07:05:31;;;;;;;4.00;2.88;;;;;;;-2.75;80.90;92686.06;5029552;22;20129;-74
2021/11/30 07:10:37;;;;;;;3.05;2.75;;;;;;;-4.29;82.21;92474.63;5020773;28;20033;-74
2021/11/30 07:15:52;;;;;;;;;;;;;;;-2.53;84.78;92795.16;5024533;28;20057;-75
2021/11/30 07:18:18;;;;;;;5.07;3.22;;;;;;;-2.51;84.81;92800.91;5021764;28;19994;-74
2021/11/30 07:20:44;;;;;;;2.88;2.30;;;;;;;-2.55;82.99;92790.22;5020518;28;20087;-74
2021/11/30 07:23:12;;;;;;;3.42;2.95;;;;;;;-2.22;82.34;92816.84;5024206;28;20727;-73
2021/11/30 07:25:38;;;;;;;4.80;3.83;;;;;;;-2.15;80.75;92809.56;5026042;28;20073;-73
2021/11/30 07:28:04;;;;;;;6.35;3.72;;;;;;;-2.11;79.26;92826.25;5027823;28;20041;-74
2021/11/30 07:30:30;;;;;;;3.00;2.78;;;;;;;-2.08;78.43;92836.91;5030432;23;20185;-87
2021/11/30 07:32:55;;;;;;;4.80;3.25;;;;;;;-1.99;78.24;92832.75;4985178;28;20108;-86
2021/11/30 07:35:22;;;;;;;3.00;2.50;;;;;;;-2.10;77.42;92799.16;4995201;28;20039;-87
2021/11/30 07:37:48;;;;;;;6.57;3.75;;;;;;;-2.65;76.33;92701.69;4980439;28;20490;-89
2021/11/30 07:40:15;;;;;;;5.95;2.78;;;;;;;-1.71;76.54;92851.56;4985180;28;20054;-89
2021/11/30 07:42:42;;;;;;;3.38;2.67;;;;;;;-2.99;75.61;92649.34;4984990;28;20076;-88
2021/11/30 07:45:08;;;;;;;4.25;3.35;;;;;;;-2.76;75.02;92700.91;4973069;28;20026;-86
2021/11/30 07:47:33;;;;;;;7.20;3.35;;;;;;;-2.09;75.13;92806.69;4980489;28;20151;-88
2021/11/30 07:49:59;;;;;;;6.03;2.97;;;;;;;-2.03;75.12;92831.72;4982274;28;20125;-88
2021/11/30 07:52:24;;;;;;;4.68;3.15;;;;;;;-1.74;75.41;92897.16;5000171;28;20043;-89
2021/11/30 07:54:51;;;;;;;6.85;3.95;;;;;;;-3.21;73.98;92667.75;4982986;28;20657;-89
2021/11/30 07:57:17;;;;;;;3.50;3.15;;;;;;;-3.64;74.12;92637.72;4980858;28;20022;-90
2021/11/30 07:59:42;;;;;;;5.82;3.42;;;;;;;-2.96;76.87;92773.69;4984666;28;20029;-89
2021/11/30 08:02:08;;;;;;;6.75;4.25;;;;;;;-3.77;77.03;92658.97;4981738;28;20069;-89
2021/11/30 08:04:33;;;;;;;6.65;4.32;;;;;;;-4.19;76.51;92596.66;4968854;28;20430;-89
2021/11/30 08:07:00;;;;;;;4.82;4.32;;;;;;;-3.32;75.62;92736.38;4977745;28;20537;-87
2021/11/30 08:09:27;;;;;;;9.63;4.97;;;;;;;-2.43;75.87;92850.63;4975918;28;20112;-89
2021/11/30 08:11:54;;;;;;;6.68;5.35;;;;;;;-1.91;75.45;92933.09;4983704;28;20034;-89
2021/11/30 08:14:20;;;;;;;8.02;6.10;;;;;;;-2.89;76.10;92769.03;4961459;28;20038;-89
2021/11/30 08:16:47;;;;;;;7.55;4.15;;;;;;;-1.95;75.85;92927.59;4961012;28;20038;-90
2021/11/30 08:19:13;;;;;;;8.25;5.13;;;;;;;-1.85;75.64;92935.44;4964535;28;20034;-88
2021/11/30 08:21:38;;;;;;;8.68;5.57;;;;;;;-3.67;75.84;92648.63;4961230;28;20039;-90
2021/11/30 08:24:04;;;;;;;7.10;5.20;;;;;;;-3.08;75.19;92777.56;4961362;28;20118;-89
2021/11/30 08:26:30;;;;;;;6.90;4.60;;;;;;;-2.28;75.15;92896.78;4960887;28;20093;-88
2021/11/30 08:28:55;;;;;;;7.15;5.80;;;;;;;-2.91;75.74;92811.94;4963662;28;20043;-88
2021/11/30 08:31:21;;;;;;;6.68;4.63;;;;;;;-3.06;76.49;92804.06;4973655;28;20054;-88
2021/11/30 08:33:47;;;;;;;4.63;3.28;;;;;;;-3.31;78.12;92802.13;4962760;28;20496;-89
2021/11/30 08:36:13;;;;;;;7.38;4.70;;;;;;;-2.20;78.41;92971.84;4979105;28;20070;-90
2021/11/30 08:38:39;;;;;;;7.57;5.20;;;;;;;-2.92;78.36;92868.41;4966018;28;20476;-89
2021/11/30 08:41:05;;;;;;;4.22;3.88;;;;;;;-3.27;79.98;92824.78;4964702;28;20038;-88
2021/11/30 08:43:30;;;;;;;6.05;4.95;;;;;;;-2.41;80.08;92963.16;4978637;28;20038;-89
2021/11/30 08:45:57;;;;;;;7.38;5.05;;;;;;;-3.48;79.93;92806.72;4972734;28;20050;-90
2021/11/30 08:48:25;;;;;;;8.73;5.13;;;;;;;-3.62;79.56;92770.78;4981560;28;20568;-90
2021/11/30 08:50:57;;;;;;;7.18;5.28;;;;;;;-3.11;78.38;92843.84;4965028;28;20045;-89
2021/11/30 08:53:24;;;;;;;7.80;4.40;;;;;;;-4.12;77.66;92671.75;4980932;28;20104;-89
2021/11/30 08:55:50;;;;;;;12.68;5.68;;;;;;;-2.92;76.67;92854.59;4960838;28;20040;-89
2021/11/30 08:58:16;;;;;;;10.10;5.93;;;;;;;-3.11;78.00;92841.25;4961891;28;20045;-90
2021/11/30 09:00:42;;;;;;;6.50;4.32;;;;;;;-2.31;80.28;92988.44;4985302;28;20037;-89
2021/11/30 09:03:08;;;;;;;7.45;4.15;;;;;;;-2.34;78.69;93000.13;4981006;28;20022;-90
2021/11/30 09:05:34;;;;;;;9.25;4.55;;;;;;;-3.53;76.88;92814.50;4968306;28;20592;-89
2021/11/30 09:08:00;;;;;;;6.35;4.95;;;;;;;-4.32;76.92;92677.59;4956750;28;20042;-90
2021/11/30 09:10:27;;;;;;;7.35;5.15;;;;;;;-4.09;75.95;92695.41;4964617;28;20042;-88
2021/11/30 09:12:53;;;;;;;10.52;5.28;;;;;;;-3.70;75.07;92726.28;4973051;28;20086;-88
2021/11/30 09:15:19;;;;;;;7.45;4.88;;;;;;;-2.00;74.01;93000.56;4969711;28;20046;-88
2021/11/30 09:17:45;;;;;;;4.72;4.32;;;;;;;-3.86;74.01;92715.03;4985066;28;20170;-87
2021/11/30 09:20:14;;;;;;;5.88;4.10;;;;;;;-2.77;72.79;92897.09;4967426;28;20194;-89
2021/11/30 09:22:39;;;;;;;9.52;4.60;;;;;;;-3.31;73.30;92807.31;4984064;28;21024;-89
2021/11/30 09:25:06;;;;;;;5.55;4.18;;;;;;;-3.89;72.38;92727.72;4985553;28;20038;-90
2021/11/30 09:27:32;;;;;;;6.30;3.72;;;;;;;-2.80;73.24;92892.41;4986724;28;20161;-89
2021/11/30 09:29:59;;;;;;;6.10;3.88;;;;;;;-4.21;72.75;92673.25;4985195;28;20046;-89
2021/11/30 09:32:29;;;;;;;5.60;4.22;;;;;;;-2.28;72.30;92961.88;4976283;28;20026;-90
2021/11/30 09:34:57;;;;;;;6.85;4.38;;;;;;;-3.22;73.35;92811.03;4979831;28;20100;-89
2021/11/30 09:37:23;;;;;;;6.40;4.43;;;;;;;-3.74;72.94;92746.78;4963953;28;20439;-88
2021/11/30 09:39:50;;;;;;;6.63;4.43;;;;;;;-2.38;71.84;92965.22;4972712;28;20201;-87
2021/11/30 09:42:17;;;;;;;6.10;3.80;;;;;;;-2.44;72.88;92916.00;4966967;28;20051;-90
2021/11/30 09:44:45;;;;;;;6.60;4.55;;;;;;;-3.76;70.83;92737.69;4982097;28;20053;-90
2021/11/30 09:47:13;;;;;;;8.30;4.57;;;;;;;-3.88;71.19;92734.50;4982660;28;20593;-88
2021/11/30 09:49:38;;;;;;;5.95;4.30;;;;;;;-2.76;71.20;92893.47;4982606;28;20054;-91
2021/11/30 09:52:04;;;;;;;4.65;3.75;;;;;;;-3.06;71.33;92837.88;4977508;28;20038;-90
2021/11/30 09:54:30;;;;;;;4.45;3.83;;;;;;;-2.41;72.29;92928.50;4968951;28;20558;-88
2021/11/30 09:56:56;;;;;;;7.90;4.78;;;;;;;-1.50;71.52;93065.13;4973646;28;20030;-89
2021/11/30 09:59:21;;;;;;;3.80;3.35;;;;;;;-2.05;71.17;92956.25;4961625;28;20073;-87
2021/11/30 10:01:47;;;;;;;5.68;4.03;;;;;;;-1.56;70.62;93031.47;4975260;28;20034;-89
2021/11/30 10:04:13;;;;;;;5.03;4.53;;;;;;;-3.69;69.15;92720.06;4958881;28;20045;-89
2021/11/30 10:06:38;;;;;;;5.90;3.85;;;;;;;-3.18;69.64;92806.91;4976862;28;20046;-89
2021/11/30 10:09:18;;;;;;;3.47;3.17;;;;;;;-1.54;69.77;93063.28;4976228;28;20030;-91
2021/11/30 10:11:44;;;;;;;4.13;3.35;;;;;;;-2.10;69.74;92958.06;4961811;28;20380;-88
2021/11/30 10:14:12;;;;;;;6.78;5.63;;;;;;;-1.50;70.21;93059.91;4972710;28;20447;-88
2021/11/30 10:16:39;;;;;;;4.13;3.38;;;;;;;-3.85;68.25;92716.56;4959582;28;20113;-88
2021/11/30 10:19:04;;;;;;;6.70;4.35;;;;;;;-3.60;68.65;92794.69;4959389;28;20049;-90
2021/11/30 10:21:30;;;;;;;5.50;3.10;;;;;;;-3.24;68.64;92852.09;4979128;28;20030;-89
2021/11/30 10:24:02;;;;;;;4.20;3.33;;;;;;;-3.36;69.56;92851.50;4976851;28;20395;-89
2021/11/30 10:26:34;;;;;;;5.70;3.78;;;;;;;-3.79;69.99;92806.50;4979112;28;20137;-90
2021/11/30 10:29:17;;;;;;;3.17;2.88;;;;;;;-2.49;69.36;92975.88;4975898;28;20034;-88
2021/11/30 10:31:46;;;;;;;4.28;3.85;;;;;;;-2.22;68.88;93031.22;4977560;28;20652;-88
2021/11/30 10:34:16;;;;;;;5.55;3.70;;;;;;;-1.96;67.67;93074.59;4972053;28;20045;-88
2021/11/30 10:36:48;;;;;;;6.70;3.65;;;;;;;-1.94;68.10;93095.97;4978396;28;20113;-89
2021/11/30 10:39:22;;;;;;;4.28;3.50;;;;;;;-3.85;68.94;92780.72;4972395;28;20038;-90
2021/11/30 10:41:51;;;;;;;4.65;3.60;;;;;;;-3.92;68.86;92773.19;4976568;28;20064;-90
2021/11/30 10:44:27;;;;;;;10.55;4.75;;;;;;;-2.92;68.21;92951.66;4975797;28;20046;-86
2021/11/30 10:47:16;;;;;;;4.10;3.72;;;;;;;-1.73;68.25;93106.50;4977430;28;20119;-89
2021/11/30 10:50:05;;;;;;;7.38;3.53;;;;;;;-3.21;68.82;92875.00;4978871;28;20049;-88
2021/11/30 10:52:33;;;;;;;6.38;3.97;;;;;;;-1.78;67.76;93081.19;4957813;28;20208;-88
2021/11/30 10:55:12;;;;;;;7.60;5.00;;;;;;;-2.74;68.59;92911.44;4975476;28;20611;-86
2021/11/30 10:57:38;;;;;;;10.63;3.80;;;;;;;-1.62;67.03;93084.63;4960202;28;20507;-89
2021/11/30 11:00:06;;;;;;;7.93;3.50;;;;;;;-1.66;66.61;93094.00;4977918;28;20026;-88
2021/11/30 11:02:52;;;;;;;7.45;4.32;;;;;;;-1.65;67.18;93098.16;4967613;28;20037;-86
2021/11/30 11:05:28;;;;;;;3.38;3.08;;;;;;;-1.92;67.12;93085.28;4975040;28;20407;-87
2021/11/30 11:08:05;;;;;;;6.93;4.75;;;;;;;-3.38;68.00;92853.59;4960707;28;20030;-88
2021/11/30 11:10:33;;;;;;;4.85;2.97;;;;;;;-2.40;67.19;93029.03;4960023;28;20439;-87
2021/11/30 11:13:21;;;;;;;6.25;4.90;;;;;;;-1.73;68.68;93104.66;4980267;28;20048;-92
2021/11/30 11:15:47;;;;;;;6.28;4.03;;;;;;;-1.75;67.26;93101.50;4951337;28;20050;-88
2021/11/30 11:18:24;;;;;;;5.22;4.07;;;;;;;-1.71;68.01;93109.63;4958249;28;20034;-87
2021/11/30 11:21:08;;;;;;;9.70;5.03;;;;;;;-2.39;68.21;92992.31;4973846;28;20128;-88
2021/11/30 11:23:34;;;;;;;5.10;3.50;;;;;;;-3.56;67.58;92803.53;4959217;28;20042;-89
2021/11/30 11:26:16;;;;;;;4.43;3.40;;;;;;;-1.64;66.49;93113.56;4977785;28;20419;-87
2021/11/30 11:28:42;;;;;;;3.08;2.85;;;;;;;-1.72;66.21;93105.44;4963510;28;20208;-90
2021/11/30 11:31:08;;;;;;;6.93;5.38;;;;;;;-1.55;66.82;93124.28;4952864;28;20129;-89
2021/11/30 11:33:35;;;;;;;4.63;3.38;;;;;;;-1.52;65.75;93119.38;4956155;28;20050;-90
2021/11/30 11:36:01;;;;;;;4.57;3.95;;;;;;;-3.87;65.20;92772.44;4954655;28;20570;-87
2021/11/30 11:38:27;;;;;;;5.95;4.68;;;;;;;-2.11;65.79;93038.03;4954635;28;20089;-88
2021/11/30 11:40:53;;;;;;;8.48;4.85;;;;;;;-2.45;66.15;92980.31;4951557;28;20454;-87
2021/11/30 11:43:21;;;;;;;5.28;4.22;;;;;;;-2.99;65.20;92913.91;4954666;28;20493;-88
2021/11/30 11:45:46;;;;;;;5.78;3.88;;;;;;;-2.34;64.82;93013.16;4968203;28;20104;-89
2021/11/30 11:48:12;;;;;;;7.93;5.18;;;;;;;-3.34;65.07;92875.44;4955341;28;20565;-88